sensor_id;sensor_type;location;lat;lon;timestamp;temperature;humidity
17571;DHT22;8903;52.220;20.978;2023-02-28T00:01:32;-2.30;99.90
17571;DHT22;8903;52.220;20.978;2023-02-28T00:03:59;-2.30;99.90
17571;DHT22;8903;52.220;20.978;2023-02-28T00:06:28;-2.40;99.90
17571;DHT22;8903;52.220;20.978;2023-02-28T00:08:55;-2.40;99.90
17571;DHT22;8903;52.220;20.978;2023-02-28T00:11:22;-2.40;99.90
17571;DHT22;8903;52.220;20.978;2023-02-28T00:13:49;-2.40;99.90
17571;DHT22;8903;52.220;20.978;2023-02-28T00:16:18;-2.40;99.90
17571;DHT22;8903;52.220;20.978;2023-02-28T00:18:46;-2.40;99.90
17571;DHT22;8903;52.220;20.978;2023-02-28T00:21:14;-2.40;99.90
17571;DHT22;8903;52.220;20.978;2023-02-28T00:23:43;-2.40;99.90
17571;DHT22;8903;52.220;20.978;2023-02-28T00:26:10;-2.50;99.90
17571;DHT22;8903;52.220;20.978;2023-02-28T00:28:38;-2.50;99.90
17571;DHT22;8903;52.220;20.978;2023-02-28T00:31:05;-2.50;99.90
17571;DHT22;8903;52.220;20.978;2023-02-28T00:33:34;-2.60;99.90
17571;DHT22;8903;52.220;20.978;2023-02-28T00:36:03;-2.60;99.90
17571;DHT22;8903;52.220;20.978;2023-02-28T00:38:31;-2.60;99.90
17571;DHT22;8903;52.220;20.978;2023-02-28T00:41:01;-2.60;99.90
17571;DHT22;8903;52.220;20.978;2023-02-28T00:43:31;-2.60;99.90
17571;DHT22;8903;52.220;20.978;2023-02-28T00:45:58;-2.60;99.90
17571;DHT22;8903;52.220;20.978;2023-02-28T00:48:25;-2.60;99.90
17571;DHT22;8903;52.220;20.978;2023-02-28T00:50:53;-2.60;99.90
17571;DHT22;8903;52.220;20.978;2023-02-28T00:53:20;-2.60;99.90
17571;DHT22;8903;52.220;20.978;2023-02-28T00:55:48;-2.60;99.90
17571;DHT22;8903;52.220;20.978;2023-02-28T00:58:16;-2.60;99.90
17571;DHT22;8903;52.220;20.978;2023-02-28T01:00:43;-2.60;99.90
17571;DHT22;8903;52.220;20.978;2023-02-28T01:03:14;-2.70;99.90
17571;DHT22;8903;52.220;20.978;2023-02-28T01:05:42;-2.60;99.90
17571;DHT22;8903;52.220;20.978;2023-02-28T01:08:08;-2.60;99.90
17571;DHT22;8903;52.220;20.978;2023-02-28T01:10:35;-2.70;99.90
17571;DHT22;8903;52.220;20.978;2023-02-28T01:13:04;-2.70;99.90
17571;DHT22;8903;52.220;20.978;2023-02-28T01:15:32;-2.70;99.90
17571;DHT22;8903;52.220;20.978;2023-02-28T01:17:59;-2.70;99.90
17571;DHT22;8903;52.220;20.978;2023-02-28T01:20:26;-2.80;99.90
17571;DHT22;8903;52.220;20.978;2023-02-28T01:22:53;-2.80;99.90
17571;DHT22;8903;52.220;20.978;2023-02-28T01:25:20;-2.80;99.90
17571;DHT22;8903;52.220;20.978;2023-02-28T01:27:47;-2.80;99.90
17571;DHT22;8903;52.220;20.978;2023-02-28T01:30:15;-2.80;99.90
17571;DHT22;8903;52.220;20.978;2023-02-28T01:32:43;-2.80;99.90
17571;DHT22;8903;52.220;20.978;2023-02-28T01:35:10;-2.80;99.90
17571;DHT22;8903;52.220;20.978;2023-02-28T01:37:37;-2.80;99.90
17571;DHT22;8903;52.220;20.978;2023-02-28T01:40:05;-2.80;99.90
17571;DHT22;8903;52.220;20.978;2023-02-28T01:42:33;-2.80;99.90
17571;DHT22;8903;52.220;20.978;2023-02-28T01:45:04;-2.80;99.90
17571;DHT22;8903;52.220;20.978;2023-02-28T01:47:35;-2.80;99.90
17571;DHT22;8903;52.220;20.978;2023-02-28T01:50:09;-2.80;99.90
17571;DHT22;8903;52.220;20.978;2023-02-28T01:52:38;-2.90;99.90
17571;DHT22;8903;52.220;20.978;2023-02-28T01:55:07;-2.90;99.90
17571;DHT22;8903;52.220;20.978;2023-02-28T01:57:38;-2.90;99.90
17571;DHT22;8903;52.220;20.978;2023-02-28T02:00:08;-2.90;99.90
17571;DHT22;8903;52.220;20.978;2023-02-28T02:02:39;-2.90;99.90
17571;DHT22;8903;52.220;20.978;2023-02-28T02:05:14;-2.90;99.90
17571;DHT22;8903;52.220;20.978;2023-02-28T02:07:43;-2.90;99.90
17571;DHT22;8903;52.220;20.978;2023-02-28T02:10:15;-2.90;99.90
17571;DHT22;8903;52.220;20.978;2023-02-28T02:13:05;-2.90;99.90
17571;DHT22;8903;52.220;20.978;2023-02-28T02:15:39;-2.90;99.90
17571;DHT22;8903;52.220;20.978;2023-02-28T02:18:13;-2.90;99.90
17571;DHT22;8903;52.220;20.978;2023-02-28T02:24:03;-2.90;99.90
17571;DHT22;8903;52.220;20.978;2023-02-28T02:26:58;-2.90;99.90
17571;DHT22;8903;52.220;20.978;2023-02-28T02:33:02;-2.90;99.90
17571;DHT22;8903;52.220;20.978;2023-02-28T02:35:35;-2.90;99.90
17571;DHT22;8903;52.220;20.978;2023-02-28T02:38:08;-2.90;99.90
17571;DHT22;8903;52.220;20.978;2023-02-28T02:40:42;-2.90;99.90
17571;DHT22;8903;52.220;20.978;2023-02-28T02:43:15;-2.90;99.90
17571;DHT22;8903;52.220;20.978;2023-02-28T02:45:46;-3.00;99.90
17571;DHT22;8903;52.220;20.978;2023-02-28T02:48:17;-3.00;99.90
17571;DHT22;8903;52.220;20.978;2023-02-28T02:50:50;-3.00;99.90
17571;DHT22;8903;52.220;20.978;2023-02-28T02:53:21;-2.90;99.90
17571;DHT22;8903;52.220;20.978;2023-02-28T02:55:51;-3.00;99.90
17571;DHT22;8903;52.220;20.978;2023-02-28T02:58:24;-3.00;99.90
17571;DHT22;8903;52.220;20.978;2023-02-28T03:00:55;-3.00;99.90
17571;DHT22;8903;52.220;20.978;2023-02-28T03:03:24;-3.00;99.90
17571;DHT22;8903;52.220;20.978;2023-02-28T03:05:57;-3.00;99.90
17571;DHT22;8903;52.220;20.978;2023-02-28T03:08:28;-3.00;99.90
17571;DHT22;8903;52.220;20.978;2023-02-28T03:10:58;-3.00;99.90
17571;DHT22;8903;52.220;20.978;2023-02-28T03:13:42;-3.00;99.90
17571;DHT22;8903;52.220;20.978;2023-02-28T03:16:37;-3.00;99.90
17571;DHT22;8903;52.220;20.978;2023-02-28T03:19:33;-3.00;99.90
17571;DHT22;8903;52.220;20.978;2023-02-28T03:22:14;-3.00;99.90
17571;DHT22;8903;52.220;20.978;2023-02-28T03:24:50;-3.00;99.90
17571;DHT22;8903;52.220;20.978;2023-02-28T03:27:24;-3.00;99.90
17571;DHT22;8903;52.220;20.978;2023-02-28T03:29:58;-3.00;99.90
17571;DHT22;8903;52.220;20.978;2023-02-28T03:32:31;-3.00;99.90
17571;DHT22;8903;52.220;20.978;2023-02-28T03:35:03;-3.00;99.90
17571;DHT22;8903;52.220;20.978;2023-02-28T03:37:35;-3.00;99.90
17571;DHT22;8903;52.220;20.978;2023-02-28T03:40:08;-3.00;99.90
17571;DHT22;8903;52.220;20.978;2023-02-28T03:42:42;-3.00;99.90
17571;DHT22;8903;52.220;20.978;2023-02-28T03:45:12;-3.00;99.90
17571;DHT22;8903;52.220;20.978;2023-02-28T03:47:45;-3.00;99.90
17571;DHT22;8903;52.220;20.978;2023-02-28T03:50:16;-3.00;99.90
17571;DHT22;8903;52.220;20.978;2023-02-28T03:52:48;-3.00;99.90
17571;DHT22;8903;52.220;20.978;2023-02-28T03:55:17;-3.00;99.90
17571;DHT22;8903;52.220;20.978;2023-02-28T03:57:53;-3.00;99.90
17571;DHT22;8903;52.220;20.978;2023-02-28T04:00:28;-3.00;99.90
17571;DHT22;8903;52.220;20.978;2023-02-28T04:02:58;-3.00;99.90
17571;DHT22;8903;52.220;20.978;2023-02-28T04:05:26;-3.00;99.90
17571;DHT22;8903;52.220;20.978;2023-02-28T04:08:03;-3.10;99.90
17571;DHT22;8903;52.220;20.978;2023-02-28T04:10:30;-3.10;99.90
17571;DHT22;8903;52.220;20.978;2023-02-28T04:12:57;-3.10;99.90
17571;DHT22;8903;52.220;20.978;2023-02-28T04:15:24;-3.10;99.90
17571;DHT22;8903;52.220;20.978;2023-02-28T04:17:53;-3.10;99.90
17571;DHT22;8903;52.220;20.978;2023-02-28T04:20:20;-3.10;99.90
17571;DHT22;8903;52.220;20.978;2023-02-28T04:22:47;-3.20;99.90
17571;DHT22;8903;52.220;20.978;2023-02-28T04:25:15;-3.20;99.90
17571;DHT22;8903;52.220;20.978;2023-02-28T04:27:42;-3.20;99.90
17571;DHT22;8903;52.220;20.978;2023-02-28T04:30:11;-3.20;99.90
17571;DHT22;8903;52.220;20.978;2023-02-28T04:32:38;-3.10;99.90
17571;DHT22;8903;52.220;20.978;2023-02-28T04:35:06;-3.10;99.90
17571;DHT22;8903;52.220;20.978;2023-02-28T04:37:33;-3.20;99.90
17571;DHT22;8903;52.220;20.978;2023-02-28T04:40:00;-3.20;99.90
17571;DHT22;8903;52.220;20.978;2023-02-28T04:42:29;-3.20;99.90
17571;DHT22;8903;52.220;20.978;2023-02-28T04:45:01;-3.20;99.90
17571;DHT22;8903;52.220;20.978;2023-02-28T04:47:28;-3.20;99.90
17571;DHT22;8903;52.220;20.978;2023-02-28T04:49:55;-3.20;99.90
17571;DHT22;8903;52.220;20.978;2023-02-28T04:52:22;-3.20;99.90
17571;DHT22;8903;52.220;20.978;2023-02-28T04:54:49;-3.10;99.90
17571;DHT22;8903;52.220;20.978;2023-02-28T04:57:17;-3.10;99.90
17571;DHT22;8903;52.220;20.978;2023-02-28T04:59:45;-3.10;99.90
17571;DHT22;8903;52.220;20.978;2023-02-28T05:02:12;-3.10;99.90
17571;DHT22;8903;52.220;20.978;2023-02-28T05:04:39;-3.20;99.90
17571;DHT22;8903;52.220;20.978;2023-02-28T05:07:06;-3.20;99.90
17571;DHT22;8903;52.220;20.978;2023-02-28T05:09:33;-3.20;99.90
17571;DHT22;8903;52.220;20.978;2023-02-28T05:12:00;-3.20;99.90
17571;DHT22;8903;52.220;20.978;2023-02-28T05:14:27;-3.20;99.90
17571;DHT22;8903;52.220;20.978;2023-02-28T05:16:55;-3.10;99.90
17571;DHT22;8903;52.220;20.978;2023-02-28T05:19:22;-3.20;99.90
17571;DHT22;8903;52.220;20.978;2023-02-28T05:21:51;-3.10;99.90
17571;DHT22;8903;52.220;20.978;2023-02-28T05:24:19;-3.10;99.90
17571;DHT22;8903;52.220;20.978;2023-02-28T05:26:49;-3.10;99.90
17571;DHT22;8903;52.220;20.978;2023-02-28T05:29:17;-3.10;99.90
17571;DHT22;8903;52.220;20.978;2023-02-28T05:31:45;-3.10;99.90
17571;DHT22;8903;52.220;20.978;2023-02-28T05:34:13;-3.10;99.90
17571;DHT22;8903;52.220;20.978;2023-02-28T05:36:41;-3.00;99.90
17571;DHT22;8903;52.220;20.978;2023-02-28T05:39:09;-3.00;99.90
17571;DHT22;8903;52.220;20.978;2023-02-28T05:41:40;-3.00;99.90
17571;DHT22;8903;52.220;20.978;2023-02-28T05:44:07;-3.00;99.90
17571;DHT22;8903;52.220;20.978;2023-02-28T05:46:34;-3.00;99.90
17571;DHT22;8903;52.220;20.978;2023-02-28T05:49:01;-3.00;99.90
17571;DHT22;8903;52.220;20.978;2023-02-28T05:51:29;-3.00;99.90
17571;DHT22;8903;52.220;20.978;2023-02-28T05:53:59;-2.90;99.90
17571;DHT22;8903;52.220;20.978;2023-02-28T05:56:26;-2.90;99.90
17571;DHT22;8903;52.220;20.978;2023-02-28T05:58:53;-2.90;99.90
17571;DHT22;8903;52.220;20.978;2023-02-28T06:01:30;-2.80;99.90
17571;DHT22;8903;52.220;20.978;2023-02-28T06:03:58;-2.80;99.90
17571;DHT22;8903;52.220;20.978;2023-02-28T06:06:25;-2.70;99.90
17571;DHT22;8903;52.220;20.978;2023-02-28T06:08:53;-2.60;99.90
17571;DHT22;8903;52.220;20.978;2023-02-28T06:11:21;-2.50;99.90
17571;DHT22;8903;52.220;20.978;2023-02-28T06:13:53;-2.30;99.90
17571;DHT22;8903;52.220;20.978;2023-02-28T06:16:20;-2.10;99.90
17571;DHT22;8903;52.220;20.978;2023-02-28T06:18:47;-2.00;99.90
17571;DHT22;8903;52.220;20.978;2023-02-28T06:21:14;-1.80;99.90
17571;DHT22;8903;52.220;20.978;2023-02-28T06:23:41;-1.70;99.90
17571;DHT22;8903;52.220;20.978;2023-02-28T06:26:10;-1.70;99.90
17571;DHT22;8903;52.220;20.978;2023-02-28T06:28:38;-1.60;99.90
17571;DHT22;8903;52.220;20.978;2023-02-28T06:31:09;-1.60;99.90
17571;DHT22;8903;52.220;20.978;2023-02-28T06:33:37;-1.50;99.90
17571;DHT22;8903;52.220;20.978;2023-02-28T06:36:05;-1.40;99.90
17571;DHT22;8903;52.220;20.978;2023-02-28T06:38:33;-1.40;99.90
17571;DHT22;8903;52.220;20.978;2023-02-28T06:41:00;-1.30;99.90
17571;DHT22;8903;52.220;20.978;2023-02-28T06:43:31;-1.30;99.90
17571;DHT22;8903;52.220;20.978;2023-02-28T06:46:00;-1.20;99.90
17571;DHT22;8903;52.220;20.978;2023-02-28T06:48:28;-1.10;99.90
17571;DHT22;8903;52.220;20.978;2023-02-28T06:51:03;-1.00;99.90
17571;DHT22;8903;52.220;20.978;2023-02-28T06:53:31;-1.00;99.90
17571;DHT22;8903;52.220;20.978;2023-02-28T06:55:58;-0.90;99.90
17571;DHT22;8903;52.220;20.978;2023-02-28T06:58:25;-0.80;99.90
17571;DHT22;8903;52.220;20.978;2023-02-28T07:00:54;-0.80;99.90
17571;DHT22;8903;52.220;20.978;2023-02-28T07:03:21;-0.70;99.90
17571;DHT22;8903;52.220;20.978;2023-02-28T07:05:48;-0.60;99.90
17571;DHT22;8903;52.220;20.978;2023-02-28T07:08:16;-0.60;99.90
17571;DHT22;8903;52.220;20.978;2023-02-28T07:10:43;-0.50;99.90
17571;DHT22;8903;52.220;20.978;2023-02-28T07:13:11;-0.50;99.90
17571;DHT22;8903;52.220;20.978;2023-02-28T07:15:38;-0.40;99.90
17571;DHT22;8903;52.220;20.978;2023-02-28T07:18:07;-0.30;99.90
17571;DHT22;8903;52.220;20.978;2023-02-28T07:20:34;-0.20;99.90
17571;DHT22;8903;52.220;20.978;2023-02-28T07:23:01;-0.20;99.90
17571;DHT22;8903;52.220;20.978;2023-02-28T07:25:30;-0.20;99.90
17571;DHT22;8903;52.220;20.978;2023-02-28T07:27:57;-0.10;99.90
17571;DHT22;8903;52.220;20.978;2023-02-28T07:30:25;-0.10;99.90
17571;DHT22;8903;52.220;20.978;2023-02-28T07:32:53;-0.10;99.90
17571;DHT22;8903;52.220;20.978;2023-02-28T07:35:23;0.00;99.90
17571;DHT22;8903;52.220;20.978;2023-02-28T07:37:50;0.00;99.90
17571;DHT22;8903;52.220;20.978;2023-02-28T07:40:17;0.10;99.90
17571;DHT22;8903;52.220;20.978;2023-02-28T07:42:44;0.10;99.90
17571;DHT22;8903;52.220;20.978;2023-02-28T07:45:16;0.20;99.90
17571;DHT22;8903;52.220;20.978;2023-02-28T07:47:44;0.30;99.90
17571;DHT22;8903;52.220;20.978;2023-02-28T07:50:13;0.30;99.90
17571;DHT22;8903;52.220;20.978;2023-02-28T07:52:42;0.30;99.90
17571;DHT22;8903;52.220;20.978;2023-02-28T07:55:09;0.40;99.90
17571;DHT22;8903;52.220;20.978;2023-02-28T07:57:37;0.40;99.90
17571;DHT22;8903;52.220;20.978;2023-02-28T08:00:06;0.50;99.80
17571;DHT22;8903;52.220;20.978;2023-02-28T08:02:39;0.50;99.90
17571;DHT22;8903;52.220;20.978;2023-02-28T08:05:07;0.50;99.70
17571;DHT22;8903;52.220;20.978;2023-02-28T08:07:34;0.60;99.30
17571;DHT22;8903;52.220;20.978;2023-02-28T08:10:04;0.60;99.50
17571;DHT22;8903;52.220;20.978;2023-02-28T08:12:32;0.70;99.50
17571;DHT22;8903;52.220;20.978;2023-02-28T08:14:59;0.70;99.40
17571;DHT22;8903;52.220;20.978;2023-02-28T08:17:26;0.80;99.20
17571;DHT22;8903;52.220;20.978;2023-02-28T08:19:53;0.80;99.10
17571;DHT22;8903;52.220;20.978;2023-02-28T08:22:20;0.90;99.10
17571;DHT22;8903;52.220;20.978;2023-02-28T08:24:48;0.90;99.00
17571;DHT22;8903;52.220;20.978;2023-02-28T08:27:16;0.90;98.90
17571;DHT22;8903;52.220;20.978;2023-02-28T08:29:43;1.00;99.40
17571;DHT22;8903;52.220;20.978;2023-02-28T08:32:10;1.00;99.00
17571;DHT22;8903;52.220;20.978;2023-02-28T08:34:39;1.00;98.80
17571;DHT22;8903;52.220;20.978;2023-02-28T08:37:06;1.00;98.90
17571;DHT22;8903;52.220;20.978;2023-02-28T08:39:34;0.90;99.00
17571;DHT22;8903;52.220;20.978;2023-02-28T08:42:02;0.90;98.90
17571;DHT22;8903;52.220;20.978;2023-02-28T08:44:30;0.80;98.80
17571;DHT22;8903;52.220;20.978;2023-02-28T08:46:57;0.80;99.00
17571;DHT22;8903;52.220;20.978;2023-02-28T08:49:24;0.70;98.40
17571;DHT22;8903;52.220;20.978;2023-02-28T08:51:51;0.70;98.80
17571;DHT22;8903;52.220;20.978;2023-02-28T08:54:19;0.70;98.90
17571;DHT22;8903;52.220;20.978;2023-02-28T08:56:46;0.70;98.60
17571;DHT22;8903;52.220;20.978;2023-02-28T08:59:13;0.70;98.40
17571;DHT22;8903;52.220;20.978;2023-02-28T09:01:42;0.70;98.70
17571;DHT22;8903;52.220;20.978;2023-02-28T09:04:10;0.60;98.60
17571;DHT22;8903;52.220;20.978;2023-02-28T09:06:37;0.70;99.00
17571;DHT22;8903;52.220;20.978;2023-02-28T09:09:04;0.80;99.40
17571;DHT22;8903;52.220;20.978;2023-02-28T09:11:33;0.80;99.00
17571;DHT22;8903;52.220;20.978;2023-02-28T09:14:01;0.70;98.80
17571;DHT22;8903;52.220;20.978;2023-02-28T09:16:29;0.70;98.90
17571;DHT22;8903;52.220;20.978;2023-02-28T09:18:58;0.60;98.90
17571;DHT22;8903;52.220;20.978;2023-02-28T09:21:26;0.60;98.90
17571;DHT22;8903;52.220;20.978;2023-02-28T09:23:53;0.60;99.20
17571;DHT22;8903;52.220;20.978;2023-02-28T09:26:22;0.70;98.50
17571;DHT22;8903;52.220;20.978;2023-02-28T09:28:50;0.70;99.10
17571;DHT22;8903;52.220;20.978;2023-02-28T09:31:20;0.80;98.80
17571;DHT22;8903;52.220;20.978;2023-02-28T09:33:47;0.70;98.80
17571;DHT22;8903;52.220;20.978;2023-02-28T09:36:16;0.80;98.60
17571;DHT22;8903;52.220;20.978;2023-02-28T09:38:43;0.90;99.20
17571;DHT22;8903;52.220;20.978;2023-02-28T09:41:14;1.00;98.90
17571;DHT22;8903;52.220;20.978;2023-02-28T09:43:45;1.10;99.00
17571;DHT22;8903;52.220;20.978;2023-02-28T09:46:28;1.30;98.20
17571;DHT22;8903;52.220;20.978;2023-02-28T09:48:58;1.40;98.40
17571;DHT22;8903;52.220;20.978;2023-02-28T09:51:37;1.50;98.20
17571;DHT22;8903;52.220;20.978;2023-02-28T09:54:09;1.50;98.00
17571;DHT22;8903;52.220;20.978;2023-02-28T09:56:40;1.60;98.10
17571;DHT22;8903;52.220;20.978;2023-02-28T09:59:16;1.60;97.50
17571;DHT22;8903;52.220;20.978;2023-02-28T10:01:52;1.60;97.70
17571;DHT22;8903;52.220;20.978;2023-02-28T10:04:36;1.70;97.30
17571;DHT22;8903;52.220;20.978;2023-02-28T10:07:21;1.70;97.60
17571;DHT22;8903;52.220;20.978;2023-02-28T10:09:52;1.70;97.20
17571;DHT22;8903;52.220;20.978;2023-02-28T10:12:20;1.70;97.50
17571;DHT22;8903;52.220;20.978;2023-02-28T10:14:50;1.70;97.20
17571;DHT22;8903;52.220;20.978;2023-02-28T10:17:20;1.80;97.70
17571;DHT22;8903;52.220;20.978;2023-02-28T10:19:56;1.80;97.30
17571;DHT22;8903;52.220;20.978;2023-02-28T10:22:29;1.90;97.00
17571;DHT22;8903;52.220;20.978;2023-02-28T10:24:58;1.90;98.00
17571;DHT22;8903;52.220;20.978;2023-02-28T10:27:31;2.10;97.70
17571;DHT22;8903;52.220;20.978;2023-02-28T10:29:59;2.10;96.90
17571;DHT22;8903;52.220;20.978;2023-02-28T10:32:29;2.20;97.30
17571;DHT22;8903;52.220;20.978;2023-02-28T10:34:59;2.20;97.00
17571;DHT22;8903;52.220;20.978;2023-02-28T10:37:28;2.30;96.90
17571;DHT22;8903;52.220;20.978;2023-02-28T10:39:57;2.30;96.80
17571;DHT22;8903;52.220;20.978;2023-02-28T10:42:26;2.10;96.70
17571;DHT22;8903;52.220;20.978;2023-02-28T10:45:06;2.20;97.00
17571;DHT22;8903;52.220;20.978;2023-02-28T10:47:34;2.40;97.20
17571;DHT22;8903;52.220;20.978;2023-02-28T10:50:03;2.40;96.80
17571;DHT22;8903;52.220;20.978;2023-02-28T10:52:39;2.50;96.80
17571;DHT22;8903;52.220;20.978;2023-02-28T10:55:20;2.50;96.90
17571;DHT22;8903;52.220;20.978;2023-02-28T10:57:48;2.60;96.50
17571;DHT22;8903;52.220;20.978;2023-02-28T11:00:17;2.60;96.60
17571;DHT22;8903;52.220;20.978;2023-02-28T11:02:45;2.70;96.60
17571;DHT22;8903;52.220;20.978;2023-02-28T11:05:26;2.60;96.20
17571;DHT22;8903;52.220;20.978;2023-02-28T11:07:58;2.60;96.70
17571;DHT22;8903;52.220;20.978;2023-02-28T11:10:29;2.60;96.60
17571;DHT22;8903;52.220;20.978;2023-02-28T11:12:58;2.70;96.70
17571;DHT22;8903;52.220;20.978;2023-02-28T11:15:27;2.80;96.90
17571;DHT22;8903;52.220;20.978;2023-02-28T11:17:57;2.80;96.20
17571;DHT22;8903;52.220;20.978;2023-02-28T11:20:28;2.90;96.00
17571;DHT22;8903;52.220;20.978;2023-02-28T11:22:59;2.90;96.40
17571;DHT22;8903;52.220;20.978;2023-02-28T11:25:30;3.00;95.60
17571;DHT22;8903;52.220;20.978;2023-02-28T11:27:58;3.00;95.80
17571;DHT22;8903;52.220;20.978;2023-02-28T11:30:38;3.10;96.10
17571;DHT22;8903;52.220;20.978;2023-02-28T11:33:27;3.20;95.10
17571;DHT22;8903;52.220;20.978;2023-02-28T11:35:59;3.30;95.60
17571;DHT22;8903;52.220;20.978;2023-02-28T11:38:28;3.40;95.40
17571;DHT22;8903;52.220;20.978;2023-02-28T11:41:05;3.30;95.00
17571;DHT22;8903;52.220;20.978;2023-02-28T11:43:49;3.20;96.10
17571;DHT22;8903;52.220;20.978;2023-02-28T11:46:26;3.20;95.80
17571;DHT22;8903;52.220;20.978;2023-02-28T11:49:05;3.40;96.00
17571;DHT22;8903;52.220;20.978;2023-02-28T11:51:35;4.80;93.90
17571;DHT22;8903;52.220;20.978;2023-02-28T11:54:33;5.80;91.90
17571;DHT22;8903;52.220;20.978;2023-02-28T11:57:14;6.20;91.10
17571;DHT22;8903;52.220;20.978;2023-02-28T11:59:53;6.20;91.20
17571;DHT22;8903;52.220;20.978;2023-02-28T12:02:29;6.40;91.10
17571;DHT22;8903;52.220;20.978;2023-02-28T12:05:15;6.30;91.50
17571;DHT22;8903;52.220;20.978;2023-02-28T12:07:51;6.20;91.10
17571;DHT22;8903;52.220;20.978;2023-02-28T12:10:25;6.10;91.20
17571;DHT22;8903;52.220;20.978;2023-02-28T12:13:07;6.40;91.10
17571;DHT22;8903;52.220;20.978;2023-02-28T12:15:57;6.60;91.10
17571;DHT22;8903;52.220;20.978;2023-02-28T12:18:34;6.50;90.40
17571;DHT22;8903;52.220;20.978;2023-02-28T12:21:10;6.70;91.30
17571;DHT22;8903;52.220;20.978;2023-02-28T12:23:57;7.20;91.00
17571;DHT22;8903;52.220;20.978;2023-02-28T12:26:34;8.40;88.50
17571;DHT22;8903;52.220;20.978;2023-02-28T12:29:11;10.00;84.10
17571;DHT22;8903;52.220;20.978;2023-02-28T12:31:43;11.70;78.00
17571;DHT22;8903;52.220;20.978;2023-02-28T12:34:16;14.40;71.90
17571;DHT22;8903;52.220;20.978;2023-02-28T12:36:46;15.40;68.10
17571;DHT22;8903;52.220;20.978;2023-02-28T12:39:18;15.70;70.10
17571;DHT22;8903;52.220;20.978;2023-02-28T12:41:53;15.20;66.70
17571;DHT22;8903;52.220;20.978;2023-02-28T12:44:25;14.40;69.10
17571;DHT22;8903;52.220;20.978;2023-02-28T12:46:58;11.90;73.60
17571;DHT22;8903;52.220;20.978;2023-02-28T12:49:29;10.20;77.10
17571;DHT22;8903;52.220;20.978;2023-02-28T12:51:58;9.60;80.10
17571;DHT22;8903;52.220;20.978;2023-02-28T12:54:32;9.20;80.90
17571;DHT22;8903;52.220;20.978;2023-02-28T12:57:09;9.20;81.10
17571;DHT22;8903;52.220;20.978;2023-02-28T12:59:42;9.30;80.20
17571;DHT22;8903;52.220;20.978;2023-02-28T13:05:28;9.10;82.70
17571;DHT22;8903;52.220;20.978;2023-02-28T13:11:02;8.60;82.10
17571;DHT22;8903;52.220;20.978;2023-02-28T13:13:31;8.30;83.30
17571;DHT22;8903;52.220;20.978;2023-02-28T13:16:00;8.50;84.80
17571;DHT22;8903;52.220;20.978;2023-02-28T13:18:32;8.90;84.40
17571;DHT22;8903;52.220;20.978;2023-02-28T13:21:00;9.20;81.70
17571;DHT22;8903;52.220;20.978;2023-02-28T13:23:59;9.50;81.90
17571;DHT22;8903;52.220;20.978;2023-02-28T13:29:33;8.80;81.90
17571;DHT22;8903;52.220;20.978;2023-02-28T13:32:29;9.10;82.60
17571;DHT22;8903;52.220;20.978;2023-02-28T13:38:32;9.90;80.30
17571;DHT22;8903;52.220;20.978;2023-02-28T13:44:16;10.40;79.90
17571;DHT22;8903;52.220;20.978;2023-02-28T13:49:50;10.50;80.30
17571;DHT22;8903;52.220;20.978;2023-02-28T13:52:21;10.50;80.60
17571;DHT22;8903;52.220;20.978;2023-02-28T13:55:13;10.50;81.10
17571;DHT22;8903;52.220;20.978;2023-02-28T13:57:58;10.00;82.70
17571;DHT22;8903;52.220;20.978;2023-02-28T14:00:37;9.20;82.10
17571;DHT22;8903;52.220;20.978;2023-02-28T14:03:23;7.90;85.10
17571;DHT22;8903;52.220;20.978;2023-02-28T14:06:14;6.90;86.30
17571;DHT22;8903;52.220;20.978;2023-02-28T14:08:50;6.20;90.60
17571;DHT22;8903;52.220;20.978;2023-02-28T14:11:31;5.80;90.80
17571;DHT22;8903;52.220;20.978;2023-02-28T14:14:00;5.50;90.90
17571;DHT22;8903;52.220;20.978;2023-02-28T14:16:37;5.20;92.10
17571;DHT22;8903;52.220;20.978;2023-02-28T14:19:12;5.00;92.30
17571;DHT22;8903;52.220;20.978;2023-02-28T14:21:56;4.70;92.40
17571;DHT22;8903;52.220;20.978;2023-02-28T14:24:49;4.40;93.50
17571;DHT22;8903;52.220;20.978;2023-02-28T14:27:29;4.40;93.30
17571;DHT22;8903;52.220;20.978;2023-02-28T14:30:26;4.30;93.50
17571;DHT22;8903;52.220;20.978;2023-02-28T14:33:05;4.30;93.50
17571;DHT22;8903;52.220;20.978;2023-02-28T14:35:54;4.20;93.80
17571;DHT22;8903;52.220;20.978;2023-02-28T14:38:28;4.20;94.00
17571;DHT22;8903;52.220;20.978;2023-02-28T14:40:58;4.20;93.60
17571;DHT22;8903;52.220;20.978;2023-02-28T14:43:28;4.10;94.20
17571;DHT22;8903;52.220;20.978;2023-02-28T14:45:57;3.90;94.40
17571;DHT22;8903;52.220;20.978;2023-02-28T14:48:25;3.60;94.50
17571;DHT22;8903;52.220;20.978;2023-02-28T14:50:55;3.50;95.00
17571;DHT22;8903;52.220;20.978;2023-02-28T14:53:25;3.50;95.50
17571;DHT22;8903;52.220;20.978;2023-02-28T14:55:53;3.50;95.50
17571;DHT22;8903;52.220;20.978;2023-02-28T14:58:24;3.60;95.20
17571;DHT22;8903;52.220;20.978;2023-02-28T15:00:53;3.60;95.50
17571;DHT22;8903;52.220;20.978;2023-02-28T15:03:23;3.60;95.30
17571;DHT22;8903;52.220;20.978;2023-02-28T15:05:55;3.50;95.20
17571;DHT22;8903;52.220;20.978;2023-02-28T15:08:25;3.40;95.70
17571;DHT22;8903;52.220;20.978;2023-02-28T15:10:56;3.20;95.70
17571;DHT22;8903;52.220;20.978;2023-02-28T15:13:37;3.20;95.90
17571;DHT22;8903;52.220;20.978;2023-02-28T15:16:09;3.20;95.90
17571;DHT22;8903;52.220;20.978;2023-02-28T15:18:44;3.20;96.50
17571;DHT22;8903;52.220;20.978;2023-02-28T15:21:15;3.20;95.70
17571;DHT22;8903;52.220;20.978;2023-02-28T15:23:46;3.20;96.10
17571;DHT22;8903;52.220;20.978;2023-02-28T15:26:16;3.20;95.90
17571;DHT22;8903;52.220;20.978;2023-02-28T15:28:46;3.10;95.80
17571;DHT22;8903;52.220;20.978;2023-02-28T15:31:21;3.00;96.20
17571;DHT22;8903;52.220;20.978;2023-02-28T15:33:54;3.00;96.20
17571;DHT22;8903;52.220;20.978;2023-02-28T15:36:24;2.80;96.30
17571;DHT22;8903;52.220;20.978;2023-02-28T15:38:54;2.80;96.40
17571;DHT22;8903;52.220;20.978;2023-02-28T15:41:27;2.70;96.70
17571;DHT22;8903;52.220;20.978;2023-02-28T15:44:16;2.60;96.90
17571;DHT22;8903;52.220;20.978;2023-02-28T15:46:52;2.60;97.20
17571;DHT22;8903;52.220;20.978;2023-02-28T15:49:21;2.60;97.20
17571;DHT22;8903;52.220;20.978;2023-02-28T15:51:51;2.50;97.40
17571;DHT22;8903;52.220;20.978;2023-02-28T15:54:22;2.50;97.40
17571;DHT22;8903;52.220;20.978;2023-02-28T15:56:55;2.50;97.70
17571;DHT22;8903;52.220;20.978;2023-02-28T15:59:24;2.50;97.50
17571;DHT22;8903;52.220;20.978;2023-02-28T16:02:16;2.40;97.70
17571;DHT22;8903;52.220;20.978;2023-02-28T16:05:02;2.40;97.80
17571;DHT22;8903;52.220;20.978;2023-02-28T16:07:29;2.30;97.60
17571;DHT22;8903;52.220;20.978;2023-02-28T16:09:58;2.20;97.70
17571;DHT22;8903;52.220;20.978;2023-02-28T16:12:27;2.20;98.00
17571;DHT22;8903;52.220;20.978;2023-02-28T16:14:56;2.10;98.60
17571;DHT22;8903;52.220;20.978;2023-02-28T16:17:26;2.10;99.20
17571;DHT22;8903;52.220;20.978;2023-02-28T16:19:53;2.00;98.70
17571;DHT22;8903;52.220;20.978;2023-02-28T16:22:21;2.00;98.70
17571;DHT22;8903;52.220;20.978;2023-02-28T16:24:48;2.00;99.10
17571;DHT22;8903;52.220;20.978;2023-02-28T16:27:19;2.00;99.00
17571;DHT22;8903;52.220;20.978;2023-02-28T16:29:47;1.90;99.20